Time;durP1;ratioP1;P1;durP2;ratioP2;P2;SDS_P1;SDS_P2;PMS_P1;PMS_P2;Temp;Humidity;BMP_temperature;BMP_pressure;BME280_temperature;BME280_humidity;BME280_pressure;Samples;Min_cycle;Max_cycle;Signal;HPM_P1;HPM_P2
2023/05/15 00:01:47;;;;;;;0.10;0.10;;;;;;;;;;5047943;28;20548;-77
2023/05/15 00:04:13;;;;;;;0.10;0.10;;;;;;;;;;5048937;28;20480;-77
2023/05/15 00:06:41;;;;;;;0.30;0.30;;;;;;;;;;5047146;28;20243;-77
2023/05/15 00:09:08;;;;;;;0.10;0.10;;;;;;;;;;5049122;28;20238;-77
2023/05/15 00:11:34;;;;;;;0.10;0.10;;;;;;;;;;5046542;28;20454;-77
2023/05/15 00:14:01;;;;;;;0.00;0.00;;;;;;;;;;5049785;28;20239;-76
2023/05/15 00:16:27;;;;;;;0.10;0.10;;;;;;;;;;5045057;28;20252;-77
2023/05/15 00:18:54;;;;;;;0.10;0.10;;;;;;;;;;5050604;28;20206;-77
2023/05/15 00:21:20;;;;;;;0.10;0.10;;;;;;;;;;5045968;28;20247;-77
2023/05/15 00:23:52;;;;;;;0.10;0.10;;;;;;;;;;5052067;28;20207;-77
2023/05/15 00:26:19;;;;;;;0.10;0.10;;;;;;;;;;5045476;28;20245;-77
2023/05/15 00:28:46;;;;;;;0.10;0.10;;;;;;;;;;5053989;28;20227;-77
2023/05/15 00:31:13;;;;;;;0.10;0.10;;;;;;;;;;5044053;28;20241;-77
2023/05/15 00:33:40;;;;;;;0.10;0.10;;;;;;;;;;5054729;28;20281;-77
2023/05/15 00:36:07;;;;;;;0.10;0.10;;;;;;;;;;5044508;28;20268;-77
2023/05/15 00:38:33;;;;;;;0.10;0.10;;;;;;;;;;5052899;28;20271;-77
2023/05/15 00:41:01;;;;;;;0.10;0.10;;;;;;;;;;5041462;28;20311;-77
2023/05/15 00:43:28;;;;;;;0.10;0.10;;;;;;;;;;5053699;28;20276;-77
2023/05/15 00:45:55;;;;;;;0.10;0.10;;;;;;;;;;5040981;28;20520;-77
2023/05/15 00:48:22;;;;;;;0.10;0.10;;;;;;;;;;5054040;28;20236;-77
2023/05/15 00:50:49;;;;;;;0.10;0.10;;;;;;;;;;5039796;28;20311;-77
2023/05/15 00:53:15;;;;;;;0.10;0.10;;;;;;;;;;5054960;28;20235;-77
2023/05/15 00:55:42;;;;;;;0.10;0.10;;;;;;;;;;5039094;28;20249;-77
2023/05/15 00:58:10;;;;;;;0.10;0.10;;;;;;;;;;5055734;28;20420;-77
2023/05/15 01:00:36;;;;;;;0.20;0.20;;;;;;;;;;5038237;28;20238;-76
2023/05/15 01:03:03;;;;;;;0.10;0.10;;;;;;;;;;5056561;28;20498;-77
2023/05/15 01:05:31;;;;;;;0.10;0.10;;;;;;;;;;5037174;28;20462;-77
2023/05/15 01:08:01;;;;;;;0.10;0.10;;;;;;;;;;5057067;28;20226;-78
2023/05/15 01:10:28;;;;;;;0.10;0.10;;;;;;;;;;5036848;28;20254;-77
2023/05/15 01:12:55;;;;;;;0.10;0.10;;;;;;;;;;5057357;28;20429;-77
2023/05/15 01:15:23;;;;;;;0.10;0.10;;;;;;;;;;5036218;28;20272;-77
2023/05/15 01:17:49;;;;;;;0.10;0.10;;;;;;;;;;5057728;28;20212;-77
2023/05/15 01:20:17;;;;;;;0.10;0.10;;;;;;;;;;5035416;28;20245;-77
2023/05/15 01:22:51;;;;;;;0.10;0.10;;;;;;;;;;5058425;28;20207;-78
2023/05/15 01:25:37;;;;;;;0.10;0.10;;;;;;;;;;5035574;28;20282;-76
2023/05/15 01:28:08;;;;;;;0.10;0.10;;;;;;;;;;5055015;28;20259;-77
2023/05/15 01:30:36;;;;;;;0.10;0.10;;;;;;;;;;5037648;28;20422;-77
2023/05/15 01:33:05;;;;;;;0.10;0.10;;;;;;;;;;5055834;28;20207;-77
2023/05/15 01:35:33;;;;;;;0.10;0.10;;;;;;;;;;5037091;28;20279;-77
2023/05/15 01:38:02;;;;;;;0.10;0.10;;;;;;;;;;5056178;28;20270;-77
2023/05/15 01:40:29;;;;;;;0.10;0.10;;;;;;;;;;5036442;28;20261;-76
2023/05/15 01:42:59;;;;;;;0.10;0.10;;;;;;;;;;5056621;28;20462;-77
2023/05/15 01:45:28;;;;;;;0.10;0.10;;;;;;;;;;5036128;28;20233;-77
2023/05/15 01:47:56;;;;;;;0.10;0.10;;;;;;;;;;5056503;28;20238;-77
2023/05/15 01:50:22;;;;;;;0.10;0.10;;;;;;;;;;5035339;28;20328;-77
2023/05/15 01:52:51;;;;;;;0.10;0.10;;;;;;;;;;5057288;28;20214;-77
2023/05/15 01:55:19;;;;;;;0.10;0.10;;;;;;;;;;5034653;28;20276;-77
2023/05/15 01:57:46;;;;;;;0.10;0.10;;;;;;;;;;5057746;28;20409;-77
2023/05/15 02:00:13;;;;;;;0.10;0.10;;;;;;;;;;5034352;28;20518;-76
2023/05/15 02:02:44;;;;;;;0.10;0.10;;;;;;;;;;5058229;28;20213;-77
2023/05/15 02:05:11;;;;;;;0.10;0.10;;;;;;;;;;5034311;28;20194;-76
2023/05/15 02:07:38;;;;;;;0.10;0.10;;;;;;;;;;5058867;28;20233;-77
2023/05/15 02:10:05;;;;;;;2.00;1.90;;;;;;;;;;5044582;28;20445;-77
2023/05/15 02:12:32;;;;;;;0.10;0.10;;;;;;;;;;5032948;28;20449;-77
2023/05/15 02:14:59;;;;;;;0.00;0.00;;;;;;;;;;5043874;28;20463;-77
2023/05/15 02:17:28;;;;;;;0.10;0.10;;;;;;;;;;5048900;28;20475;-77
2023/05/15 02:19:56;;;;;;;0.10;0.10;;;;;;;;;;5043734;28;20215;-77
2023/05/15 02:22:22;;;;;;;0.10;0.10;;;;;;;;;;5048884;28;20307;-77
2023/05/15 02:24:48;;;;;;;0.10;0.10;;;;;;;;;;5043283;28;20219;-77
2023/05/15 02:27:20;;;;;;;0.10;0.10;;;;;;;;;;5048727;28;20248;-77
2023/05/15 02:29:51;;;;;;;0.10;0.10;;;;;;;;;;5043668;28;20194;-77
2023/05/15 02:32:22;;;;;;;0.10;0.10;;;;;;;;;;5048817;28;20245;-76
2023/05/15 02:34:52;;;;;;;0.10;0.10;;;;;;;;;;5043492;28;20203;-77
2023/05/15 02:37:24;;;;;;;0.10;0.10;;;;;;;;;;5048806;28;20590;-77
2023/05/15 02:39:53;;;;;;;0.10;0.10;;;;;;;;;;5044351;28;20225;-77
2023/05/15 02:42:20;;;;;;;0.10;0.10;;;;;;;;;;5052620;28;20246;-77
2023/05/15 02:44:46;;;;;;;0.10;0.10;;;;;;;;;;5047059;28;20206;-77
2023/05/15 02:47:13;;;;;;;0.10;0.10;;;;;;;;;;5052407;28;20308;-77
2023/05/15 02:49:40;;;;;;;0.10;0.10;;;;;;;;;;5046819;28;20218;-77
2023/05/15 02:52:06;;;;;;;0.10;0.10;;;;;;;;;;5052286;28;20437;-76
2023/05/15 02:54:34;;;;;;;0.10;0.10;;;;;;;;;;5047247;28;20237;-76
2023/05/15 02:57:01;;;;;;;0.10;0.10;;;;;;;;;;5051339;28;20245;-77
2023/05/15 02:59:27;;;;;;;0.10;0.10;;;;;;;;;;5047826;28;20293;-77
2023/05/15 03:01:53;;;;;;;0.10;0.10;;;;;;;;;;5050302;28;20313;-77
2023/05/15 03:04:20;;;;;;;0.10;0.10;;;;;;;;;;5048550;28;20208;-77
2023/05/15 03:06:46;;;;;;;0.10;0.10;;;;;;;;;;5049425;28;20308;-77
2023/05/15 03:09:13;;;;;;;0.10;0.10;;;;;;;;;;5049103;28;20229;-76
2023/05/15 03:11:40;;;;;;;0.10;0.10;;;;;;;;;;5048382;28;20419;-77
2023/05/15 03:14:07;;;;;;;0.10;0.10;;;;;;;;;;5050356;28;20246;-77
2023/05/15 03:16:35;;;;;;;0.10;0.10;;;;;;;;;;5047511;28;20489;-76
2023/05/15 03:19:02;;;;;;;0.10;0.10;;;;;;;;;;5050853;28;20554;-77
2023/05/15 03:21:29;;;;;;;0.10;0.10;;;;;;;;;;5046704;28;20249;-77
2023/05/15 03:23:55;;;;;;;0.10;0.10;;;;;;;;;;5051376;28;20275;-77
2023/05/15 03:26:22;;;;;;;0.10;0.10;;;;;;;;;;5045760;28;20271;-77
2023/05/15 03:28:49;;;;;;;0.10;0.10;;;;;;;;;;5052163;28;20233;-77
2023/05/15 03:31:16;;;;;;;0.10;0.10;;;;;;;;;;5044844;28;20257;-76
2023/05/15 03:33:44;;;;;;;0.10;0.10;;;;;;;;;;5053028;28;20207;-77
2023/05/15 03:36:11;;;;;;;0.10;0.10;;;;;;;;;;5044285;28;20304;-76
2023/05/15 03:38:37;;;;;;;0.10;0.10;;;;;;;;;;5053560;28;20207;-77
2023/05/15 03:41:03;;;;;;;0.10;0.10;;;;;;;;;;5043296;28;20260;-76
2023/05/15 03:43:30;;;;;;;0.10;0.10;;;;;;;;;;5054149;28;20211;-77
2023/05/15 03:45:58;;;;;;;0.10;0.10;;;;;;;;;;5042390;28;20261;-77
2023/05/15 03:48:25;;;;;;;0.10;0.10;;;;;;;;;;5054838;28;20296;-76
2023/05/15 03:50:52;;;;;;;0.10;0.10;;;;;;;;;;5041197;28;20546;-77
2023/05/15 03:53:18;;;;;;;0.20;0.20;;;;;;;;;;5055364;28;20211;-77
2023/05/15 03:55:44;;;;;;;0.10;0.10;;;;;;;;;;5040693;28;20468;-77
2023/05/15 03:58:11;;;;;;;0.10;0.10;;;;;;;;;;5056557;28;20236;-77
2023/05/15 04:00:37;;;;;;;0.10;0.10;;;;;;;;;;5038837;28;20309;-76
2023/05/15 04:03:05;;;;;;;0.10;0.10;;;;;;;;;;5057851;28;20228;-77
2023/05/15 04:05:31;;;;;;;0.10;0.10;;;;;;;;;;5038240;28;20518;-76
2023/05/15 04:07:58;;;;;;;0.60;0.60;;;;;;;;;;5058466;28;20416;-78
2023/05/15 04:10:24;;;;;;;0.10;0.10;;;;;;;;;;5037577;28;20281;-77
2023/05/15 04:12:51;;;;;;;0.10;0.10;;;;;;;;;;5058885;28;20278;-77
2023/05/15 04:15:18;;;;;;;0.10;0.10;;;;;;;;;;5036385;28;20249;-76
2023/05/15 04:17:45;;;;;;;0.10;0.10;;;;;;;;;;5059652;28;20519;-76
2023/05/15 04:20:14;;;;;;;0.10;0.10;;;;;;;;;;5035604;28;20200;-75
2023/05/15 04:22:40;;;;;;;0.10;0.10;;;;;;;;;;5060008;28;20278;-77
2023/05/15 04:25:08;;;;;;;0.30;0.30;;;;;;;;;;5045553;28;20276;-77
2023/05/15 04:27:34;;;;;;;0.10;0.10;;;;;;;;;;5033957;28;20579;-76
2023/05/15 04:30:02;;;;;;;0.10;0.10;;;;;;;;;;5045360;28;20614;-76
2023/05/15 04:32:28;;;;;;;0.10;0.10;;;;;;;;;;5050563;28;20260;-77
2023/05/15 04:34:55;;;;;;;0.10;0.10;;;;;;;;;;5045378;28;20204;-77
2023/05/15 04:37:22;;;;;;;0.10;0.10;;;;;;;;;;5050311;28;20241;-77
2023/05/15 04:39:49;;;;;;;0.10;0.10;;;;;;;;;;5044864;28;20208;-77
2023/05/15 04:42:16;;;;;;;0.10;0.10;;;;;;;;;;5050380;28;20249;-76
2023/05/15 04:44:43;;;;;;;0.10;0.10;;;;;;;;;;5045094;28;20206;-77
2023/05/15 04:47:10;;;;;;;0.10;0.10;;;;;;;;;;5050245;28;20249;-76
2023/05/15 04:49:36;;;;;;;0.10;0.10;;;;;;;;;;5044715;28;20457;-77
2023/05/15 04:52:03;;;;;;;0.10;0.10;;;;;;;;;;5049517;28;20335;-76
2023/05/15 04:54:31;;;;;;;0.10;0.10;;;;;;;;;;5045339;28;20228;-77
2023/05/15 04:56:57;;;;;;;0.10;0.10;;;;;;;;;;5048798;28;20307;-77
2023/05/15 04:59:24;;;;;;;0.10;0.10;;;;;;;;;;5045989;28;20468;-77
2023/05/15 05:01:51;;;;;;;0.43;0.43;;;;;;;;;;5047604;28;20242;-77
2023/05/15 05:04:18;;;;;;;0.10;0.10;;;;;;;;;;5046334;28;20197;-77
2023/05/15 05:06:44;;;;;;;0.10;0.10;;;;;;;;;;5046716;28;20657;-77
2023/05/15 05:09:11;;;;;;;0.10;0.10;;;;;;;;;;5047545;28;20264;-77
2023/05/15 05:11:42;;;;;;;0.10;0.10;;;;;;;;;;5045662;28;20240;-77
2023/05/15 05:14:08;;;;;;;0.10;0.10;;;;;;;;;;5047802;28;20204;-77
2023/05/15 05:16:35;;;;;;;0.10;0.10;;;;;;;;;;5045455;28;20243;-76
2023/05/15 05:19:01;;;;;;;0.10;0.10;;;;;;;;;;5048719;28;20275;-77
2023/05/15 05:21:28;;;;;;;0.20;0.20;;;;;;;;;;5044211;28;20270;-76
2023/05/15 05:23:54;;;;;;;0.10;0.10;;;;;;;;;;5049431;28;20531;-77
2023/05/15 05:26:21;;;;;;;0.20;0.20;;;;;;;;;;5043451;28;20246;-77
2023/05/15 05:28:49;;;;;;;0.10;0.10;;;;;;;;;;5050231;28;20255;-76
2023/05/15 05:31:15;;;;;;;0.40;0.40;;;;;;;;;;5042710;28;20320;-77
2023/05/15 05:33:42;;;;;;;0.10;0.10;;;;;;;;;;5050598;28;20269;-76
2023/05/15 05:36:08;;;;;;;0.10;0.10;;;;;;;;;;5041516;28;20304;-77
2023/05/15 05:38:35;;;;;;;0.10;0.10;;;;;;;;;;5051627;28;20213;-77
2023/05/15 05:41:02;;;;;;;0.10;0.10;;;;;;;;;;5040922;28;20486;-77
2023/05/15 05:43:28;;;;;;;0.27;0.27;;;;;;;;;;5052261;28;20514;-77
2023/05/15 05:45:56;;;;;;;0.10;0.10;;;;;;;;;;5039761;28;20265;-77
2023/05/15 05:48:23;;;;;;;0.10;0.10;;;;;;;;;;5052885;28;20250;-77
2023/05/15 05:50:50;;;;;;;0.10;0.10;;;;;;;;;;5038959;28;20240;-77
2023/05/15 05:53:16;;;;;;;0.10;0.10;;;;;;;;;;5053800;28;20204;-77
2023/05/15 05:55:42;;;;;;;0.10;0.10;;;;;;;;;;5037996;28;20310;-77
2023/05/15 05:58:09;;;;;;;0.10;0.10;;;;;;;;;;5054578;28;20307;-77
2023/05/15 06:00:36;;;;;;;0.10;0.10;;;;;;;;;;5037008;28;20243;-77
2023/05/15 06:03:04;;;;;;;0.50;0.50;;;;;;;;;;5055744;28;20529;-77
2023/05/15 06:05:30;;;;;;;0.10;0.10;;;;;;;;;;5036239;28;20240;-76
2023/05/15 06:07:57;;;;;;;0.10;0.10;;;;;;;;;;5056092;28;20375;-76
2023/05/15 06:10:23;;;;;;;0.10;0.10;;;;;;;;;;5035323;28;20272;-76
2023/05/15 06:12:49;;;;;;;0.10;0.10;;;;;;;;;;5056854;28;20232;-76
2023/05/15 06:15:16;;;;;;;0.10;0.10;;;;;;;;;;5034095;28;20550;-76
2023/05/15 06:17:42;;;;;;;0.10;0.10;;;;;;;;;;5057979;28;20464;-76
2023/05/15 06:20:11;;;;;;;0.20;0.20;;;;;;;;;;5033694;28;20239;-76
2023/05/15 06:22:37;;;;;;;0.10;0.10;;;;;;;;;;5058575;28;20239;-77
2023/05/15 06:25:04;;;;;;;0.10;0.10;;;;;;;;;;5043725;28;20227;-77
2023/05/15 06:27:31;;;;;;;0.10;0.10;;;;;;;;;;5048881;28;20312;-76
2023/05/15 06:29:57;;;;;;;1.23;1.23;;;;;;;;;;5043520;28;20231;-76
2023/05/15 06:32:23;;;;;;;0.10;0.10;;;;;;;;;;5049408;28;20312;-76
2023/05/15 06:34:50;;;;;;;0.10;0.10;;;;;;;;;;5043317;28;20236;-82
2023/05/15 06:37:18;;;;;;;0.10;0.10;;;;;;;;;;5048778;28;20261;-79
2023/05/15 06:39:44;;;;;;;0.10;0.10;;;;;;;;;;5043316;28;20202;-79
2023/05/15 06:42:11;;;;;;;0.10;0.10;;;;;;;;;;5048733;28;20268;-79
2023/05/15 06:44:37;;;;;;;0.10;0.10;;;;;;;;;;5043603;28;20206;-77
2023/05/15 06:47:04;;;;;;;0.10;0.10;;;;;;;;;;5048102;28;20326;-78
2023/05/15 06:49:30;;;;;;;0.20;0.20;;;;;;;;;;5043571;28;20253;-78
2023/05/15 06:51:57;;;;;;;0.10;0.10;;;;;;;;;;5047219;28;20246;-78
2023/05/15 06:54:25;;;;;;;0.10;0.10;;;;;;;;;;5044578;28;20275;-77
2023/05/15 06:56:51;;;;;;;0.10;0.10;;;;;;;;;;5045235;28;20255;-77
2023/05/15 06:59:17;;;;;;;0.10;0.10;;;;;;;;;;5046186;28;20288;-77
2023/05/15 07:01:44;;;;;;;0.10;0.10;;;;;;;;;;5044832;28;20248;-76
2023/05/15 07:04:10;;;;;;;0.10;0.10;;;;;;;;;;5046850;28;20403;-77
2023/05/15 07:06:37;;;;;;;0.30;0.30;;;;;;;;;;5044278;28;20345;-76
2023/05/15 07:09:03;;;;;;;0.10;0.10;;;;;;;;;;5048377;28;20295;-80
2023/05/15 07:11:32;;;;;;;0.53;0.53;;;;;;;;;;5044228;28;20248;-79
2023/05/15 07:13:58;;;;;;;0.10;0.10;;;;;;;;;;5047717;28;20222;-79
2023/05/15 07:16:25;;;;;;;0.10;0.10;;;;;;;;;;5042426;28;20257;-79
2023/05/15 07:18:54;;;;;;;0.10;0.10;;;;;;;;;;5048503;28;20473;-74
2023/05/15 07:21:23;;;;;;;0.10;0.10;;;;;;;;;;5041979;28;20247;-75
2023/05/15 07:23:49;;;;;;;0.10;0.10;;;;;;;;;;5048410;28;20240;-75
2023/05/15 07:26:16;;;;;;;0.10;0.10;;;;;;;;;;5041443;28;20240;-75
2023/05/15 07:28:43;;;;;;;0.10;0.10;;;;;;;;;;5056157;28;20282;-75
2023/05/15 07:31:10;;;;;;;0.13;0.13;;;;;;;;;;5044441;28;20274;-75
2023/05/15 07:33:36;;;;;;;0.20;0.20;;;;;;;;;;5053504;28;20214;-75
2023/05/15 07:36:03;;;;;;;0.10;0.10;;;;;;;;;;5043328;28;20383;-75
2023/05/15 07:38:29;;;;;;;0.10;0.10;;;;;;;;;;5054652;28;20241;-75
2023/05/15 07:40:55;;;;;;;0.10;0.10;;;;;;;;;;5042080;28;20239;-75
2023/05/15 07:43:22;;;;;;;0.10;0.10;;;;;;;;;;5055305;28;20273;-75
2023/05/15 07:45:49;;;;;;;0.10;0.10;;;;;;;;;;5041359;28;20253;-75
2023/05/15 07:48:16;;;;;;;0.97;0.97;;;;;;;;;;5056202;28;20449;-75
2023/05/15 07:50:43;;;;;;;0.10;0.10;;;;;;;;;;5040376;28;20446;-75
2023/05/15 07:53:10;;;;;;;0.10;0.10;;;;;;;;;;5056981;28;20460;-75
2023/05/15 07:55:36;;;;;;;0.10;0.10;;;;;;;;;;5039570;28;20463;-75
2023/05/15 07:58:02;;;;;;;0.20;0.20;;;;;;;;;;5057709;28;20500;-75
2023/05/15 08:00:29;;;;;;;0.10;0.10;;;;;;;;;;5038494;28;21794;-75
2023/05/15 08:02:56;;;;;;;0.10;0.10;;;;;;;;;;5058410;28;20266;-75
2023/05/15 08:05:23;;;;;;;0.10;0.10;;;;;;;;;;5037341;28;20278;-74
2023/05/15 08:07:49;;;;;;;0.10;0.10;;;;;;;;;;5059335;28;20205;-75
2023/05/15 08:10:16;;;;;;;0.05;0.05;;;;;;;;;;5036559;28;20263;-75
2023/05/15 08:12:45;;;;;;;0.10;0.10;;;;;;;;;;5060096;28;20204;-74
2023/05/15 08:15:12;;;;;;;0.10;0.10;;;;;;;;;;5036005;28;20243;-75
2023/05/15 08:17:38;;;;;;;0.10;0.10;;;;;;;;;;5060351;28;20246;-74
2023/05/15 08:20:07;;;;;;;0.10;0.10;;;;;;;;;;5045749;28;20395;-74
2023/05/15 08:22:33;;;;;;;0.08;0.08;;;;;;;;;;5034224;28;20422;-75
2023/05/15 08:25:02;;;;;;;0.10;0.10;;;;;;;;;;5045309;28;20236;-75
2023/05/15 08:27:29;;;;;;;5.68;5.38;;;;;;;;;;5050661;28;20240;-75
2023/05/15 08:29:55;;;;;;;0.00;0.00;;;;;;;;;;5045411;28;20416;-75
2023/05/15 08:32:22;;;;;;;0.00;0.00;;;;;;;;;;5050629;28;20251;-75
2023/05/15 08:34:48;;;;;;;0.03;0.03;;;;;;;;;;5045461;28;20213;-75
2023/05/15 08:37:16;;;;;;;0.10;0.10;;;;;;;;;;5050110;28;20251;-75
2023/05/15 08:39:42;;;;;;;0.10;0.10;;;;;;;;;;5045016;28;20241;-75
2023/05/15 08:42:10;;;;;;;0.38;0.38;;;;;;;;;;5050345;28;20242;-75
2023/05/15 08:44:38;;;;;;;0.00;0.00;;;;;;;;;;5047106;28;20237;-75
2023/05/15 08:47:05;;;;;;;2.22;2.08;;;;;;;;;;5051257;28;20236;-79
2023/05/15 08:49:35;;;;;;;0.00;0.00;;;;;;;;;;5045221;28;20293;-79
2023/05/15 08:52:03;;;;;;;0.00;0.00;;;;;;;;;;5049412;28;20253;-79
2023/05/15 08:54:31;;;;;;;0.03;0.03;;;;;;;;;;5045217;28;20268;-79
2023/05/15 08:56:57;;;;;;;0.10;0.10;;;;;;;;;;5048542;28;20248;-79
2023/05/15 08:59:24;;;;;;;0.10;0.10;;;;;;;;;;5046174;28;20260;-79
2023/05/15 09:01:50;;;;;;;0.00;0.00;;;;;;;;;;5047650;28;20317;-79
2023/05/15 09:04:17;;;;;;;0.00;0.00;;;;;;;;;;5046708;28;20213;-79
2023/05/15 09:06:44;;;;;;;0.10;0.10;;;;;;;;;;5046602;28;20487;-79
2023/05/15 09:09:12;;;;;;;0.10;0.10;;;;;;;;;;5047780;28;20282;-79
2023/05/15 09:11:42;;;;;;;0.22;0.22;;;;;;;;;;5045708;28;20277;-79
2023/05/15 09:14:09;;;;;;;0.15;0.15;;;;;;;;;;5047720;28;20505;-79
2023/05/15 09:16:36;;;;;;;1.08;0.85;;;;;;;;;;5045673;28;20577;-79
2023/05/15 09:19:02;;;;;;;0.00;0.00;;;;;;;;;;5048614;28;20511;-80
2023/05/15 09:21:30;;;;;;;0.10;0.10;;;;;;;;;;5044356;28;20336;-79
2023/05/15 09:24:15;;;;;;;0.40;0.40;;;;;;;;;;5048892;28;20269;-79
2023/05/15 09:26:43;;;;;;;0.08;0.08;;;;;;;;;;5046218;28;20627;-79
2023/05/15 09:29:09;;;;;;;0.10;0.10;;;;;;;;;;5047212;28;20208;-79
2023/05/15 09:31:36;;;;;;;0.00;0.00;;;;;;;;;;5045234;28;20243;-79
2023/05/15 09:34:04;;;;;;;0.00;0.00;;;;;;;;;;5048008;28;20247;-80
2023/05/15 09:36:31;;;;;;;0.10;0.10;;;;;;;;;;5044516;28;20255;-79
2023/05/15 09:38:58;;;;;;;0.10;0.10;;;;;;;;;;5048629;28;20207;-79
2023/05/15 09:41:25;;;;;;;0.00;0.00;;;;;;;;;;5043297;28;20250;-79
2023/05/15 09:43:55;;;;;;;0.20;0.20;;;;;;;;;;5049166;28;20204;-80
2023/05/15 09:46:21;;;;;;;0.00;0.00;;;;;;;;;;5043178;28;20304;-79
2023/05/15 09:48:48;;;;;;;0.00;0.00;;;;;;;;;;5049471;28;20213;-79
2023/05/15 09:51:14;;;;;;;0.10;0.10;;;;;;;;;;5041637;28;20444;-79
2023/05/15 09:53:41;;;;;;;0.30;0.30;;;;;;;;;;5050404;28;20250;-79
2023/05/15 09:56:09;;;;;;;0.08;0.08;;;;;;;;;;5041359;28;20459;-79
2023/05/15 09:58:36;;;;;;;0.17;0.17;;;;;;;;;;5051229;28;20413;-79
2023/05/15 10:01:10;;;;;;;0.10;0.10;;;;;;;;;;5040537;28;20254;-80
2023/05/15 10:03:36;;;;;;;4.75;1.08;;;;;;;;;;5051295;28;20237;-79
2023/05/15 10:06:03;;;;;;;0.08;0.08;;;;;;;;;;5040579;28;20484;-79
2023/05/15 10:08:33;;;;;;;0.35;0.35;;;;;;;;;;5052000;28;20207;-79
2023/05/15 10:11:00;;;;;;;0.38;0.38;;;;;;;;;;5039990;28;20566;-79
2023/05/15 10:13:27;;;;;;;0.08;0.08;;;;;;;;;;5052061;28;20216;-79
2023/05/15 10:15:57;;;;;;;0.10;0.10;;;;;;;;;;5038229;28;20247;-79
2023/05/15 10:18:26;;;;;;;0.10;0.10;;;;;;;;;;5053020;28;20233;-79
2023/05/15 10:20:52;;;;;;;0.10;0.10;;;;;;;;;;5042454;28;20451;-71
2023/05/15 10:23:21;;;;;;;0.10;0.10;;;;;;;;;;5054017;28;20194;-72
2023/05/15 10:25:50;;;;;;;0.08;0.08;;;;;;;;;;5038171;28;20243;-72
2023/05/15 10:28:17;;;;;;;0.10;0.10;;;;;;;;;;5053471;28;20208;-72
2023/05/15 10:30:43;;;;;;;0.10;0.10;;;;;;;;;;5037536;28;20236;-71
2023/05/15 10:33:11;;;;;;;0.10;0.10;;;;;;;;;;5054369;28;20453;-71
2023/05/15 10:35:39;;;;;;;0.10;0.10;;;;;;;;;;5036812;28;20243;-71
2023/05/15 10:38:06;;;;;;;0.10;0.10;;;;;;;;;;5054933;28;20206;-71
2023/05/15 10:40:33;;;;;;;0.00;0.00;;;;;;;;;;5036538;28;20329;-71
2023/05/15 10:43:00;;;;;;;0.00;0.00;;;;;;;;;;5055754;28;20377;-71
2023/05/15 10:45:29;;;;;;;0.35;0.35;;;;;;;;;;5035780;28;20210;-71
2023/05/15 10:47:56;;;;;;;0.20;0.20;;;;;;;;;;5055937;28;20433;-71
2023/05/15 10:50:23;;;;;;;0.00;0.00;;;;;;;;;;5034764;28;20605;-71
2023/05/15 10:52:52;;;;;;;0.10;0.10;;;;;;;;;;5056786;28;20230;-71
2023/05/15 10:55:19;;;;;;;0.10;0.10;;;;;;;;;;5034736;28;20286;-71
2023/05/15 10:57:45;;;;;;;0.00;0.00;;;;;;;;;;5056910;28;20239;-71
2023/05/15 11:00:24;;;;;;;0.05;0.05;;;;;;;;;;5033838;28;20385;-72
2023/05/15 11:02:52;;;;;;;0.10;0.10;;;;;;;;;;5060426;28;20418;-71
2023/05/15 11:05:19;;;;;;;0.10;0.10;;;;;;;;;;5038453;28;20437;-71
2023/05/15 11:07:49;;;;;;;0.00;0.00;;;;;;;;;;5061173;28;20249;-71
2023/05/15 11:10:33;;;;;;;0.00;0.00;;;;;;;;;;5037782;28;20234;-71
2023/05/15 11:13:03;;;;;;;0.10;0.10;;;;;;;;;;5045500;28;20440;-71
2023/05/15 11:15:41;;;;;;;0.08;0.08;;;;;;;;;;5039035;28;20251;-71
2023/05/15 11:18:08;;;;;;;0.10;0.10;;;;;;;;;;5057652;28;20196;-71
2023/05/15 11:20:37;;;;;;;0.00;0.00;;;;;;;;;;5040217;28;20273;-71
2023/05/15 11:23:03;;;;;;;0.08;0.08;;;;;;;;;;5058418;28;20259;-71
2023/05/15 11:25:31;;;;;;;0.35;0.35;;;;;;;;;;5039498;28;20249;-71
2023/05/15 11:27:57;;;;;;;0.10;0.10;;;;;;;;;;5059121;28;20227;-71
2023/05/15 11:30:34;;;;;;;0.10;0.10;;;;;;;;;;5038060;28;20235;-71
2023/05/15 11:33:00;;;;;;;0.22;0.22;;;;;;;;;;5058663;28;20447;-71
2023/05/15 11:35:28;;;;;;;0.32;0.32;;;;;;;;;;5039275;28;20469;-68
2023/05/15 11:37:56;;;;;;;0.85;0.85;;;;;;;;;;5059353;28;20213;-69
2023/05/15 11:40:24;;;;;;;0.52;0.52;;;;;;;;;;5038213;28;20208;-72
2023/05/15 11:43:08;;;;;;;0.10;0.10;;;;;;;;;;5059474;28;20260;-71
2023/05/15 11:45:39;;;;;;;0.00;0.00;;;;;;;;;;5039114;28;20240;-70
2023/05/15 11:48:07;;;;;;;0.00;0.00;;;;;;;;;;5057873;28;20283;-70
2023/05/15 11:50:34;;;;;;;0.00;0.00;;;;;;;;;;5038850;28;20478;-70
2023/05/15 11:53:05;;;;;;;0.00;0.00;;;;;;;;;;5057978;28;20197;-70
2023/05/15 11:55:32;;;;;;;0.00;0.00;;;;;;;;;;5039155;28;20309;-70
2023/05/15 11:57:58;;;;;;;0.10;0.10;;;;;;;;;;5057990;28;20295;-70
2023/05/15 12:00:25;;;;;;;0.00;0.00;;;;;;;;;;5038105;28;20575;-70
2023/05/15 12:02:53;;;;;;;0.70;0.70;;;;;;;;;;5059161;28;20485;-71
2023/05/15 12:05:19;;;;;;;0.00;0.00;;;;;;;;;;5037701;28;20239;-70
2023/05/15 12:07:46;;;;;;;0.10;0.10;;;;;;;;;;5059618;28;20266;-71
2023/05/15 12:10:13;;;;;;;0.00;0.00;;;;;;;;;;5036370;28;20212;-72
2023/05/15 12:12:39;;;;;;;0.00;0.00;;;;;;;;;;5060114;28;20380;-71
2023/05/15 12:15:08;;;;;;;0.00;0.00;;;;;;;;;;5046104;28;20283;-71
2023/05/15 12:17:36;;;;;;;0.10;0.10;;;;;;;;;;5034313;28;20242;-71
2023/05/15 12:20:05;;;;;;;0.08;0.08;;;;;;;;;;5045700;28;20208;-71
2023/05/15 12:22:35;;;;;;;0.00;0.00;;;;;;;;;;5051267;28;20242;-71
2023/05/15 12:25:02;;;;;;;0.35;0.35;;;;;;;;;;5045969;28;20380;-71
2023/05/15 12:27:28;;;;;;;0.00;0.00;;;;;;;;;;5051118;28;20259;-70
2023/05/15 12:29:55;;;;;;;0.10;0.10;;;;;;;;;;5045768;28;20371;-71
2023/05/15 12:32:21;;;;;;;0.00;0.00;;;;;;;;;;5050900;28;20239;-71
2023/05/15 12:34:48;;;;;;;0.10;0.10;;;;;;;;;;5045308;28;20213;-71
2023/05/15 12:37:19;;;;;;;0.10;0.10;;;;;;;;;;5050580;28;20240;-71
2023/05/15 12:39:53;;;;;;;0.00;0.00;;;;;;;;;;5045640;28;20372;-70
2023/05/15 12:42:19;;;;;;;0.10;0.10;;;;;;;;;;5050510;28;20235;-71
2023/05/15 12:44:46;;;;;;;0.00;0.00;;;;;;;;;;5045176;28;20461;-71
2023/05/15 12:47:13;;;;;;;0.30;0.30;;;;;;;;;;5050435;28;20449;-71
2023/05/15 12:49:40;;;;;;;0.00;0.00;;;;;;;;;;5044881;28;20221;-71
2023/05/15 12:52:08;;;;;;;0.00;0.00;;;;;;;;;;5050186;28;20261;-71
2023/05/15 12:54:40;;;;;;;0.20;0.20;;;;;;;;;;5045235;28;20511;-71
2023/05/15 12:57:06;;;;;;;0.20;0.20;;;;;;;;;;5050021;28;20303;-72
2023/05/15 12:59:33;;;;;;;0.10;0.10;;;;;;;;;;5044952;28;20228;-71
2023/05/15 13:01:59;;;;;;;0.00;0.00;;;;;;;;;;5049101;28;20460;-71
2023/05/15 13:04:26;;;;;;;0.60;0.55;;;;;;;;;;5045935;28;20275;-71
2023/05/15 13:06:52;;;;;;;0.00;0.00;;;;;;;;;;5047999;28;20506;-71
2023/05/15 13:09:21;;;;;;;0.30;0.30;;;;;;;;;;5046590;28;20205;-74
2023/05/15 13:11:54;;;;;;;10.02;3.55;;;;;;;;;;5047189;28;20236;-75
2023/05/15 13:14:25;;;;;;;0.03;0.03;;;;;;;;;;5046412;28;20275;-73
2023/05/15 13:16:57;;;;;;;0.10;0.10;;;;;;;;;;5047557;28;20240;-74
2023/05/15 13:19:24;;;;;;;0.00;0.00;;;;;;;;;;5045682;28;20212;-73
2023/05/15 13:22:00;;;;;;;1.27;0.98;;;;;;;;;;5046690;28;20236;-73
2023/05/15 13:24:30;;;;;;;0.03;0.03;;;;;;;;;;5045581;28;20208;-74
2023/05/15 13:27:04;;;;;;;0.57;0.57;;;;;;;;;;5047933;28;20248;-72
2023/05/15 13:29:34;;;;;;;0.20;0.20;;;;;;;;;;5045370;28;20377;-73
2023/05/15 13:32:04;;;;;;;0.10;0.10;;;;;;;;;;5048463;28;20236;-73
2023/05/15 13:34:30;;;;;;;0.77;0.77;;;;;;;;;;5044693;28;20204;-73
2023/05/15 13:36:57;;;;;;;1.27;1.17;;;;;;;;;;5048109;28;20281;-73
2023/05/15 13:39:23;;;;;;;0.68;0.68;;;;;;;;;;5045287;28;20200;-73
2023/05/15 13:41:49;;;;;;;0.10;0.10;;;;;;;;;;5047130;28;20481;-74
2023/05/15 13:44:18;;;;;;;0.10;0.10;;;;;;;;;;5046277;28;20204;-74
2023/05/15 13:46:44;;;;;;;0.00;0.00;;;;;;;;;;5046265;28;20303;-74
2023/05/15 13:49:10;;;;;;;0.00;0.00;;;;;;;;;;5046811;28;20254;-73
2023/05/15 13:51:37;;;;;;;0.10;0.10;;;;;;;;;;5045340;28;20234;-73
2023/05/15 13:54:04;;;;;;;0.00;0.00;;;;;;;;;;5047691;28;20249;-72
2023/05/15 13:56:31;;;;;;;0.35;0.35;;;;;;;;;;5044494;28;20435;-73
2023/05/15 13:58:57;;;;;;;0.00;0.00;;;;;;;;;;5048404;28;20264;-74
2023/05/15 14:01:25;;;;;;;0.13;0.13;;;;;;;;;;5042478;28;20248;-74
2023/05/15 14:03:51;;;;;;;0.00;0.00;;;;;;;;;;5049309;28;20244;-73
2023/05/15 14:06:18;;;;;;;0.00;0.00;;;;;;;;;;5042558;28;20265;-74
2023/05/15 14:08:44;;;;;;;0.10;0.10;;;;;;;;;;5050019;28;20205;-74
2023/05/15 14:11:10;;;;;;;0.00;0.00;;;;;;;;;;5041356;28;20261;-73
2023/05/15 14:13:37;;;;;;;0.00;0.00;;;;;;;;;;5050857;28;20245;-73
2023/05/15 14:16:04;;;;;;;0.20;0.20;;;;;;;;;;5040107;28;20240;-73
2023/05/15 14:18:31;;;;;;;0.17;0.17;;;;;;;;;;5051728;28;20239;-74
2023/05/15 14:20:58;;;;;;;0.10;0.10;;;;;;;;;;5039994;28;20252;-74
2023/05/15 14:23:25;;;;;;;0.00;0.00;;;;;;;;;;5052785;28;20206;-74
2023/05/15 14:25:51;;;;;;;0.03;0.03;;;;;;;;;;5038932;28;20247;-73
2023/05/15 14:28:18;;;;;;;0.10;0.10;;;;;;;;;;5053113;28;20233;-74
2023/05/15 14:30:44;;;;;;;0.10;0.10;;;;;;;;;;5037902;28;20295;-73
2023/05/15 14:33:11;;;;;;;0.08;0.08;;;;;;;;;;5053931;28;20230;-74
2023/05/15 14:35:39;;;;;;;0.10;0.10;;;;;;;;;;5037955;28;20273;-73
2023/05/15 14:38:05;;;;;;;0.10;0.10;;;;;;;;;;5059145;28;20360;-74
2023/05/15 14:40:31;;;;;;;0.00;0.00;;;;;;;;;;5040259;28;20245;-73
2023/05/15 14:42:58;;;;;;;0.00;0.00;;;;;;;;;;5059767;28;20239;-73
2023/05/15 14:45:24;;;;;;;0.00;0.00;;;;;;;;;;5039492;28;20458;-74